Unalaska, AK (99685)

7:49 AM AKDT on March 26, 2017 (GMT -0800)
Unalaska | | Change Station

Elev 20 ft 53.90 °N, 166.54 °W | Updated 53 minutes ago

Rain
Rain
36 °F
Feels Like 25 °F
N
22
Wind Variable Wind from East
Gusts 32 mph

Today
High -- | Low -- °F
--% Chance of Precip.
Yesterday
High -- | Low -- °F
Precip. -- in
Pressure 29.43 in
Visibility 10.0 miles
Clouds Few 1800 ft
Overcast 2400 ft
Windchill 25 °F
Dew Point 28 °F
Humidity 73%
Rainfall 0.03 in
Snow Depth Not available.
8:52 AM 9:31 PM
Waning Crescent, 3% visible
METAR PADU 261456Z AUTO 10019G28KT 10SM UP FEW018 OVC024 02/M02 A2943 RMK AO2 PK WND 10030/1431 UPB05RAB29E43 SLP965 P0000 60000 T00221022 56022 FZRANO
Pressure 29.43 in
Visibility 10.0 miles
Clouds Few 1800 ft
Overcast 2400 ft
Windchill 25 °F
Dew Point 28 °F
Humidity 73%
Rainfall 0.03 in
Snow Depth Not available.
8:52 AM 9:31 PM
Waning Crescent, 3% visible
METAR PADU 261456Z AUTO 10019G28KT 10SM UP FEW018 OVC024 02/M02 A2943 RMK AO2 PK WND 10030/1431 UPB05RAB29E43 SLP965 P0000 60000 T00221022 56022 FZRANO

Get Severe Weather Alerts

Thanks for signing up!

Be on the lookout for a verification email in your inbox.

You'll start receiving the daily forecast at 8 AM.

×

10-Day Weather Forecast

Almanac

Astronomy

Mar. 26, 2017 Rise Set
Actual Time
Civil Twilight
Nautical Twilight
Astronomical Twilight
Moon
Length of Visible Light
Length of Day
Tomorrow will be .
, % of the Moon is Illuminated

Today's Extremes

State Highs State Lows

Community

WunderPhotos

Upload Photos

1,962,540 photos uploaded!

WunderBlog® & News

Nearby

Air Quality

  Air Quality AQ Index Pollutant
Not available.

Snow Depth

Station Depth Elevation

Earthquake Activity

City Distance Mag. Time & Date
Minimum magnitude displayed is 2.5.

Earthquake Activity

City Distance Mag. Time & Date
Minimum magnitude displayed is 2.5.

Coastal Water Temperatures

Place Temperature

Stations

Nearby Weather Stations

Station Location Temp. Windchill Dew Point Humidity Wind Precip. Elev Updated Type
                   

Watches & Warnings

There are currently no watches in effect.